Time;durP1;ratioP1;P1;durP2;ratioP2;P2;SDS_P1;SDS_P2;PMS_P1;PMS_P2;Temp;Humidity;BMP_temperature;BMP_pressure;BME280_temperature;BME280_humidity;BME280_pressure;Samples;Min_cycle;Max_cycle;Signal;HPM_P1;HPM_P2
2021/05/28 00:01:50;;;;;;;5.57;5.15;;;11.10;99.90;;;11.82;90.73;98358.28;5222739;28;20204;-63
2021/05/28 00:04:23;;;;;;;4.93;4.63;;;11.10;99.90;;;11.78;90.11;98352.06;5224335;28;20209;-62
2021/05/28 00:06:55;;;;;;;5.15;4.85;;;11.00;99.90;;;11.77;90.26;98354.56;5226801;28;20198;-63
2021/05/28 00:09:30;;;;;;;5.35;5.05;;;11.00;99.90;;;11.73;90.19;98359.50;5226035;28;20562;-61
2021/05/28 00:12:04;;;;;;;4.88;4.45;;;11.00;99.90;;;11.77;90.00;98364.78;5223695;28;20299;-63
2021/05/28 00:14:37;;;;;;;4.68;4.47;;;11.00;99.90;;;11.75;90.43;98366.38;5225692;28;20239;-62
2021/05/28 00:17:11;;;;;;;4.68;4.38;;;11.00;99.90;;;11.73;89.76;98373.94;5226124;28;20303;-61
2021/05/28 00:19:43;;;;;;;5.35;4.85;;;11.00;99.90;;;11.68;90.04;98378.81;5228933;28;20201;-63
2021/05/28 00:22:16;;;;;;;5.00;4.68;;;10.90;99.90;;;11.68;90.38;98380.47;5230071;28;20295;-64
2021/05/28 00:24:49;;;;;;;6.15;5.65;;;10.90;99.90;;;11.59;91.47;98385.00;5229334;28;20217;-63
2021/05/28 00:27:21;;;;;;;6.38;5.88;;;10.90;99.90;;;11.61;91.64;98386.88;5227763;28;20205;-63
2021/05/28 00:29:55;;;;;;;6.07;5.57;;;10.90;99.90;;;11.63;91.33;98381.88;5228402;28;20194;-62
2021/05/28 00:32:29;;;;;;;5.53;5.03;;;10.90;99.90;;;11.48;92.06;98381.81;5228409;28;20575;-62
2021/05/28 00:35:01;;;;;;;5.65;5.25;;;10.80;99.90;;;11.49;91.98;98383.56;5226758;28;20236;-63
2021/05/28 00:37:34;;;;;;;5.10;4.70;;;10.80;99.90;;;11.41;93.11;98382.22;5227740;28;20194;-62
2021/05/28 00:40:08;;;;;;;5.25;4.95;;;10.70;99.90;;;11.37;93.35;98382.81;5226750;28;20227;-61
2021/05/28 00:42:40;;;;;;;5.38;4.97;;;10.70;99.90;;;11.41;94.33;98389.91;5227873;28;20200;-62
2021/05/28 00:45:16;;;;;;;5.90;5.50;;;10.70;99.90;;;11.41;94.30;98389.91;5229218;28;20217;-63
2021/05/28 00:47:49;;;;;;;6.00;5.40;;;10.70;99.90;;;11.39;94.58;98383.78;5230889;28;20207;-62
2021/05/28 00:50:22;;;;;;;6.00;5.43;;;10.70;99.90;;;11.36;94.32;98383.59;5228304;28;20236;-62
2021/05/28 00:52:56;;;;;;;5.40;4.90;;;10.60;99.90;;;11.26;94.46;98388.16;5231242;28;20284;-62
2021/05/28 00:55:29;;;;;;;5.72;5.15;;;10.60;99.90;;;11.30;95.15;98396.00;5227053;28;20303;-61
2021/05/28 00:58:02;;;;;;;5.18;4.72;;;10.60;99.90;;;11.28;95.39;98381.47;5229760;28;20204;-62
2021/05/28 01:00:35;;;;;;;5.63;5.22;;;10.60;99.90;;;11.36;95.17;98383.59;5226228;28;20207;-62
2021/05/28 01:03:08;;;;;;;5.68;5.13;;;10.70;99.90;;;11.37;95.87;98382.81;5231122;28;20194;-62
2021/05/28 01:05:41;;;;;;;6.30;5.80;;;10.70;99.90;;;11.44;95.50;98379.84;5231082;28;20213;-62
2021/05/28 01:08:14;;;;;;;5.82;5.53;;;10.80;99.90;;;11.43;96.09;98384.09;5228256;28;20192;-62
2021/05/28 01:10:47;;;;;;;6.18;5.68;;;10.70;99.90;;;11.44;96.04;98380.72;5226563;28;20205;-61
2021/05/28 01:13:20;;;;;;;5.82;5.22;;;10.70;99.90;;;11.45;95.48;98379.06;5228459;28;20216;-61
2021/05/28 01:15:52;;;;;;;5.75;5.45;;;10.70;99.90;;;11.47;94.68;98390.28;5227602;28;20216;-62
2021/05/28 01:18:26;;;;;;;6.47;5.90;;;10.70;99.90;;;11.46;95.27;98376.59;5220641;28;20197;-62
2021/05/28 01:20:59;;;;;;;5.78;5.30;;;10.80;99.90;;;11.47;94.75;98380.94;5223057;28;20251;-62
2021/05/28 01:23:32;;;;;;;6.18;5.78;;;10.70;99.90;;;11.53;95.29;98388.09;5229411;28;20208;-61
2021/05/28 01:26:05;;;;;;;6.28;5.80;;;10.80;99.90;;;11.52;94.85;98388.88;5226542;28;20236;-62
2021/05/28 01:28:37;;;;;;;5.65;5.25;;;10.80;99.90;;;11.55;95.27;98394.19;5230142;28;20662;-61
2021/05/28 01:31:10;;;;;;;5.53;5.13;;;10.80;99.90;;;11.55;95.13;98394.19;5225715;28;20189;-61
2021/05/28 01:33:45;;;;;;;6.38;5.97;;;10.80;99.90;;;11.56;94.25;98385.75;5229837;28;20213;-61
2021/05/28 01:36:18;;;;;;;6.53;6.03;;;10.80;99.90;;;11.56;94.65;98385.75;5233558;28;20221;-63
2021/05/28 01:38:51;;;;;;;6.57;6.07;;;10.80;99.90;;;11.54;94.27;98389.88;5227875;28;20200;-63
2021/05/28 01:41:29;;;;;;;6.57;6.07;;;10.80;99.90;;;11.53;94.70;98385.53;5218176;28;20208;-62
2021/05/28 01:44:07;;;;;;;6.63;6.07;;;10.80;99.90;;;11.56;94.07;98387.38;5231274;28;20569;-63
2021/05/28 01:46:40;;;;;;;6.60;6.07;;;10.80;99.90;;;11.60;93.93;98387.69;5226729;28;20215;-63
2021/05/28 01:49:12;;;;;;;6.57;6.07;;;10.80;99.90;;;11.58;94.10;98381.56;5226670;28;20268;-63
2021/05/28 01:51:52;;;;;;;6.75;6.22;;;10.70;99.90;;;11.56;94.44;98385.75;5226959;28;20193;-63
2021/05/28 01:54:25;;;;;;;6.60;6.10;;;10.80;99.90;;;11.58;94.07;98381.56;5231799;28;20216;-63
2021/05/28 01:56:58;;;;;;;6.90;6.30;;;10.80;99.90;;;11.56;94.50;98379.72;5226112;28;20201;-63
2021/05/28 01:59:30;;;;;;;6.47;5.97;;;10.80;99.90;;;11.52;94.52;98370.97;5231087;28;20211;-62
2021/05/28 02:02:04;;;;;;;6.03;5.63;;;10.70;99.90;;;11.53;94.04;98380.41;5225668;28;20193;-63
2021/05/28 02:04:36;;;;;;;6.55;5.95;;;10.70;99.90;;;11.54;94.54;98382.19;5232268;28;20209;-63
2021/05/28 02:07:09;;;;;;;6.60;6.10;;;10.80;99.90;;;11.49;94.51;98373.34;5228538;28;20571;-63
2021/05/28 02:09:42;;;;;;;6.03;5.63;;;10.70;99.90;;;11.49;94.92;98378.47;5225896;28;20193;-63
2021/05/28 02:12:15;;;;;;;6.50;6.03;;;10.70;99.90;;;11.52;94.35;98388.88;5226556;28;20203;-63
2021/05/28 02:14:48;;;;;;;6.28;5.88;;;10.70;99.90;;;11.50;94.59;98390.47;5226251;28;20562;-63
2021/05/28 02:17:20;;;;;;;6.68;6.18;;;10.70;99.90;;;11.51;94.75;98392.25;5226254;28;20205;-63
2021/05/28 02:19:55;;;;;;;7.10;6.60;;;10.70;99.90;;;11.53;95.22;98389.75;5224616;28;20243;-63
2021/05/28 02:22:27;;;;;;;7.00;6.50;;;10.80;99.90;;;11.56;95.23;98390.88;5229506;28;20211;-61
2021/05/28 02:25:02;;;;;;;7.32;6.82;;;10.80;99.90;;;11.53;95.30;98388.09;5227255;28;20218;-61
2021/05/28 02:27:35;;;;;;;7.72;7.22;;;10.80;99.90;;;11.54;95.22;98392.44;5225691;28;20197;-60
2021/05/28 02:30:10;;;;;;;8.27;7.45;;;10.70;99.90;;;11.55;94.77;98386.50;5230769;28;20189;-62
2021/05/28 02:32:43;;;;;;;7.60;7.00;;;10.80;99.90;;;11.61;94.31;98384.31;5225075;28;20196;-60
2021/05/28 02:35:16;;;;;;;7.55;7.05;;;10.70;99.90;;;11.58;94.99;98391.81;5228913;28;20228;-60
2021/05/28 02:37:49;;;;;;;7.43;6.93;;;10.80;99.90;;;11.52;95.03;98380.31;5227489;28;20205;-61
2021/05/28 02:40:22;;;;;;;7.65;7.05;;;10.70;99.90;;;11.55;94.81;98383.06;5227808;28;20193;-60
2021/05/28 02:42:54;;;;;;;6.90;6.40;;;10.80;99.90;;;11.56;94.71;98387.38;5224517;28;20197;-62
2021/05/28 02:45:27;;;;;;;6.68;6.18;;;10.80;99.90;;;11.59;94.61;98395.25;5228122;28;20227;-61
2021/05/28 02:48:00;;;;;;;7.15;6.65;;;10.80;99.90;;;11.57;94.63;98392.63;5225142;28;20197;-62
2021/05/28 02:50:33;;;;;;;6.78;6.32;;;10.80;99.90;;;11.58;94.49;98393.50;5230977;28;20205;-62
2021/05/28 02:53:05;;;;;;;6.68;6.28;;;10.80;99.90;;;11.64;94.59;98392.19;5230364;28;20204;-61
2021/05/28 02:55:39;;;;;;;6.47;6.03;;;10.80;99.90;;;11.67;94.08;98384.69;5230230;28;20221;-62
2021/05/28 02:58:11;;;;;;;6.50;6.00;;;10.80;99.90;;;11.60;94.82;98392.81;5229432;28;20292;-62
2021/05/28 03:00:44;;;;;;;7.22;6.60;;;10.80;99.90;;;11.59;95.27;98387.56;5224658;28;20197;-62
2021/05/28 03:03:16;;;;;;;7.00;6.38;;;10.80;99.90;;;11.61;95.38;98394.56;5225067;28;20280;-62
2021/05/28 03:05:50;;;;;;;6.47;6.00;;;10.80;99.90;;;11.59;94.95;98390.13;5225701;28;20213;-60
2021/05/28 03:08:23;;;;;;;6.82;6.30;;;10.70;99.90;;;11.58;94.25;98388.38;5225491;28;20189;-62
2021/05/28 03:10:56;;;;;;;5.93;5.53;;;10.70;99.90;;;11.57;94.36;98382.38;5228727;28;20201;-60
2021/05/28 03:13:29;;;;;;;5.60;5.30;;;10.70;99.90;;;11.56;93.85;98380.63;5229257;28;20655;-61
2021/05/28 03:16:02;;;;;;;6.57;6.07;;;10.70;99.90;;;11.59;94.37;98382.47;5225333;28;20296;-62
2021/05/28 03:18:45;;;;;;;6.22;5.82;;;10.70;99.90;;;11.55;94.30;98380.50;5226538;28;20579;-60
2021/05/28 03:21:21;;;;;;;6.75;6.25;;;10.70;99.90;;;11.46;94.45;98388.50;5226709;28;20283;-61
2021/05/28 03:23:55;;;;;;;6.47;5.95;;;10.70;99.90;;;11.46;95.00;98388.50;5225734;28;20202;-60
2021/05/28 03:26:30;;;;;;;6.70;6.10;;;10.70;99.90;;;11.44;94.93;98398.63;5224764;28;20201;-60
2021/05/28 03:29:03;;;;;;;6.40;6.00;;;10.70;99.90;;;11.44;95.39;98392.63;5226167;28;20203;-62
2021/05/28 03:31:35;;;;;;;6.78;6.18;;;10.70;99.90;;;11.40;95.21;98403.50;5230487;28;20664;-60
2021/05/28 03:34:08;;;;;;;5.65;5.35;;;10.60;99.90;;;11.42;95.56;98401.91;5228912;28;20231;-63
2021/05/28 03:36:40;;;;;;;7.35;6.65;;;10.60;99.90;;;11.44;95.59;98395.19;5225138;28;20193;-62
2021/05/28 03:39:13;;;;;;;6.93;6.45;;;10.60;99.90;;;11.45;95.20;98392.75;5231713;28;20284;-61
2021/05/28 03:41:47;;;;;;;6.90;6.40;;;10.60;99.90;;;11.47;95.63;98391.19;5225545;28;20193;-58
2021/05/28 03:44:19;;;;;;;7.03;6.53;;;10.70;99.90;;;11.47;95.58;98391.19;5232003;28;20205;-61
2021/05/28 03:46:53;;;;;;;7.18;6.68;;;10.70;99.90;;;11.51;94.78;98389.69;5224685;28;20598;-62
2021/05/28 03:49:26;;;;;;;7.47;6.93;;;10.70;99.90;;;11.45;94.91;98395.31;5231536;28;20570;-61
2021/05/28 03:51:58;;;;;;;7.35;6.85;;;10.70;99.90;;;11.43;94.67;98388.31;5225373;28;20607;-62
2021/05/28 03:54:32;;;;;;;9.00;8.30;;;10.60;99.90;;;11.33;94.67;98392.00;5226075;28;20229;-62
2021/05/28 03:57:06;;;;;;;7.63;7.03;;;10.60;99.90;;;11.38;94.40;98395.69;5232034;28;20198;-62
2021/05/28 03:59:39;;;;;;;7.82;7.32;;;10.60;99.90;;;11.38;94.83;98384.59;5228708;28;20201;-63
2021/05/28 04:02:11;;;;;;;7.90;7.38;;;10.60;99.90;;;11.41;94.99;98395.88;5227503;28;20588;-62
2021/05/28 04:04:44;;;;;;;7.07;6.57;;;10.60;99.90;;;11.41;95.40;98392.44;5228029;28;20235;-63
2021/05/28 04:07:16;;;;;;;7.30;6.80;;;10.60;99.90;;;11.44;94.95;98396.09;5229015;28;20204;-62
2021/05/28 04:09:49;;;;;;;7.25;6.75;;;10.60;99.90;;;11.48;95.16;98398.06;5229536;28;20193;-63
2021/05/28 04:12:22;;;;;;;7.43;6.82;;;10.60;99.90;;;11.54;95.10;98400.13;5226028;28;20200;-62
2021/05/28 04:14:55;;;;;;;7.53;7.03;;;10.70;99.90;;;11.60;95.24;98402.16;5221767;28;20331;-62
2021/05/28 04:17:27;;;;;;;7.63;7.13;;;10.80;99.90;;;11.60;95.26;98400.50;5228381;28;20193;-62
2021/05/28 04:20:00;;;;;;;8.13;7.53;;;10.80;99.90;;;11.64;95.38;98401.56;5227654;28;20208;-62
2021/05/28 04:22:33;;;;;;;7.07;6.57;;;10.80;99.90;;;11.65;95.46;98403.34;5228317;28;20284;-63
2021/05/28 04:25:07;;;;;;;7.28;6.75;;;10.90;99.90;;;11.72;94.79;98401.22;5228429;28;20733;-59
2021/05/28 04:27:41;;;;;;;7.38;6.88;;;10.90;99.90;;;11.76;94.50;98406.53;5228034;28;20283;-62
2021/05/28 04:30:23;;;;;;;6.97;6.38;;;10.80;99.90;;;11.76;94.19;98401.41;5221376;28;20612;-61
2021/05/28 04:32:55;;;;;;;7.95;7.35;;;10.90;99.90;;;11.78;94.06;98392.16;5231531;28;20193;-61
2021/05/28 04:35:28;;;;;;;7.35;6.85;;;10.90;99.90;;;11.80;94.02;98395.72;5228561;28;20228;-62
2021/05/28 04:38:01;;;;;;;7.65;7.15;;;10.90;99.90;;;11.84;93.28;98397.66;5228167;28;20586;-61
2021/05/28 04:40:34;;;;;;;6.75;6.32;;;10.90;99.90;;;11.84;93.38;98403.66;5227202;28;20197;-62
2021/05/28 04:43:08;;;;;;;7.25;6.65;;;10.90;99.90;;;11.81;93.49;98405.16;5219667;28;20197;-62
2021/05/28 04:45:40;;;;;;;6.90;6.40;;;10.90;99.90;;;11.81;93.69;98400.03;5227174;28;20213;-62
2021/05/28 04:48:13;;;;;;;7.75;7.15;;;10.90;99.90;;;11.81;93.40;98394.91;5229176;28;20197;-61
2021/05/28 04:50:45;;;;;;;7.57;7.00;;;10.90;99.90;;;11.74;93.94;98396.22;5228645;28;20189;-61
2021/05/28 04:53:18;;;;;;;7.95;7.35;;;10.90;99.90;;;11.80;93.64;98395.72;5227986;28;20199;-60
2021/05/28 04:55:51;;;;;;;7.10;6.60;;;10.90;99.90;;;11.77;93.43;98393.84;5226514;28;20221;-62
2021/05/28 04:58:24;;;;;;;8.25;7.65;;;10.80;99.90;;;11.72;92.69;98396.13;5227564;28;20193;-62
2021/05/28 05:00:57;;;;;;;7.88;7.30;;;10.80;99.90;;;11.72;93.35;98398.66;5227585;28;20830;-60
2021/05/28 05:03:29;;;;;;;8.60;7.90;;;10.80;99.90;;;11.76;93.03;98409.09;5221938;28;20403;-63
2021/05/28 05:06:02;;;;;;;7.90;7.40;;;10.90;99.90;;;11.81;93.31;98407.72;5229667;28;20209;-62
2021/05/28 05:08:36;;;;;;;9.25;8.50;;;10.90;99.90;;;11.81;93.18;98410.28;5222587;28;20649;-61
2021/05/28 05:11:08;;;;;;;9.20;8.50;;;11.00;99.90;;;11.84;93.50;98413.03;5225472;28;20208;-62
2021/05/28 05:13:42;;;;;;;10.88;10.02;;;11.00;99.90;;;11.85;93.24;98412.25;5229225;28;20201;-61
2021/05/28 05:16:14;;;;;;;11.00;10.18;;;11.00;99.90;;;11.88;93.08;98415.03;5223835;28;20243;-65
2021/05/28 05:18:47;;;;;;;10.00;9.20;;;11.00;99.90;;;11.88;92.95;98420.16;5226240;28;20677;-62
2021/05/28 05:21:20;;;;;;;10.68;9.85;;;11.00;99.90;;;11.95;93.13;98424.84;5224044;28;20205;-62
2021/05/28 05:23:54;;;;;;;10.48;9.65;;;11.10;99.90;;;11.87;92.11;98429.47;5224653;28;20197;-61
2021/05/28 05:26:26;;;;;;;10.57;9.88;;;11.10;99.90;;;11.94;92.56;98426.53;5227070;28;20673;-61
2021/05/28 05:29:00;;;;;;;11.05;10.15;;;11.10;99.90;;;12.06;92.28;98431.50;5223551;28;20205;-63
2021/05/28 05:31:33;;;;;;;10.73;9.93;;;11.20;99.90;;;12.18;92.30;98429.66;5224166;28;20727;-62
2021/05/28 05:34:06;;;;;;;9.00;8.20;;;11.30;99.90;;;12.34;91.65;98434.03;5224020;28;20574;-63
2021/05/28 05:36:40;;;;;;;8.52;7.93;;;11.40;99.90;;;12.49;90.11;98434.06;5224973;28;20203;-65
2021/05/28 05:39:13;;;;;;;9.40;8.70;;;11.50;99.90;;;12.57;89.73;98435.38;5225641;28;20211;-62
2021/05/28 05:41:46;;;;;;;10.15;9.23;;;11.50;99.90;;;12.59;89.93;98436.38;5224630;28;20276;-65
2021/05/28 05:44:19;;;;;;;9.32;8.48;;;11.60;99.90;;;12.63;89.03;98430.63;5224706;28;20217;-63
2021/05/28 05:46:52;;;;;;;9.20;8.50;;;11.70;99.90;;;12.76;88.94;98433.88;5223010;28;20645;-63
2021/05/28 05:49:24;;;;;;;8.85;8.23;;;11.80;99.90;;;12.79;87.56;98428.91;5223110;28;20201;-63
2021/05/28 05:51:57;;;;;;;9.32;8.52;;;11.80;99.90;;;12.97;86.38;98445.38;5222970;28;20691;-63
2021/05/28 05:54:30;;;;;;;9.07;8.35;;;11.90;99.90;;;12.99;87.02;98442.88;5222772;28;20221;-63
2021/05/28 05:57:02;;;;;;;8.50;7.88;;;12.00;99.90;;;13.07;85.26;98446.78;5221727;28;20203;-62
2021/05/28 05:59:36;;;;;;;7.93;7.22;;;12.00;99.90;;;13.18;85.33;98442.25;5221129;28;20571;-63
2021/05/28 06:02:08;;;;;;;7.80;7.20;;;12.10;99.90;;;13.19;85.16;98442.38;5221315;28;20209;-64
2021/05/28 06:04:41;;;;;;;8.80;8.10;;;12.10;99.90;;;13.20;85.01;98443.25;5222982;28;20223;-63
2021/05/28 06:07:13;;;;;;;8.18;7.38;;;12.10;99.90;;;13.20;85.37;98445.81;5222896;28;20669;-62
2021/05/28 06:09:46;;;;;;;7.85;7.25;;;12.10;99.90;;;13.22;84.93;98449.31;5221326;28;20240;-65
2021/05/28 06:12:18;;;;;;;9.30;8.50;;;12.10;99.90;;;13.26;85.10;98451.31;5218676;28;20215;-63
2021/05/28 06:14:52;;;;;;;7.93;7.28;;;12.10;99.90;;;13.36;84.68;98456.16;5221624;28;20236;-65
2021/05/28 06:17:25;;;;;;;8.20;7.57;;;12.20;99.90;;;13.56;82.13;98452.13;5222676;28;20200;-64
2021/05/28 06:19:57;;;;;;;8.55;7.90;;;12.40;99.90;;;13.71;81.33;98460.69;5221793;28;20681;-63
2021/05/28 06:22:32;;;;;;;9.15;8.32;;;12.50;99.90;;;13.83;80.19;98460.44;5221665;28;20204;-62
2021/05/28 06:25:07;;;;;;;8.60;7.90;;;12.70;99.90;;;13.92;79.05;98458.38;5223337;28;20713;-65
2021/05/28 06:27:39;;;;;;;9.52;8.65;;;12.70;99.90;;;14.05;78.00;98457.34;5224876;28;20211;-64
2021/05/28 06:30:15;;;;;;;8.88;8.18;;;12.80;99.90;;;14.06;77.31;98455.66;5222508;28;20204;-63
2021/05/28 06:32:48;;;;;;;8.98;8.18;;;12.80;99.90;;;14.25;77.11;98455.81;5223449;28;20215;-62
2021/05/28 06:35:21;;;;;;;7.97;7.28;;;13.00;99.90;;;14.40;74.40;98460.88;5221959;28;20680;-63
2021/05/28 06:37:54;;;;;;;8.07;7.47;;;13.20;99.90;;;14.46;76.30;98468.03;5215382;28;20208;-60
2021/05/28 06:40:27;;;;;;;8.27;7.60;;;13.30;99.90;;;14.48;75.19;98472.44;5220115;28;20202;-62
2021/05/28 06:42:59;;;;;;;8.65;7.88;;;13.20;99.90;;;14.17;73.57;98472.53;5214884;28;20205;-62
2021/05/28 06:45:35;;;;;;;8.85;8.10;;;13.00;99.90;;;14.13;74.03;98478.31;5220173;28;20591;-62
2021/05/28 06:48:09;;;;;;;8.07;7.47;;;12.90;99.90;;;14.01;74.47;98470.81;5222561;28;20641;-61
2021/05/28 06:50:42;;;;;;;8.63;8.00;;;12.80;99.90;;;13.88;75.98;98474.44;5229200;28;20707;-62
2021/05/28 06:53:15;;;;;;;7.63;6.97;;;12.70;99.90;;;13.97;74.69;98482.63;5217720;28;20250;-61
2021/05/28 06:55:48;;;;;;;7.68;7.07;;;12.70;99.90;;;13.90;75.65;98479.66;5223517;28;20228;-59
2021/05/28 06:58:21;;;;;;;7.03;6.53;;;12.70;99.90;;;14.03;75.17;98478.63;5235120;28;20197;-59
2021/05/28 07:00:57;;;;;;;7.90;7.20;;;12.90;99.90;;;14.16;76.74;98478.47;5222369;28;20575;-62
2021/05/28 07:03:31;;;;;;;8.15;7.45;;;13.00;99.90;;;14.32;73.87;98470.75;5223979;28;20255;-60
2021/05/28 07:06:05;;;;;;;8.00;7.35;;;13.10;99.90;;;14.46;72.92;98475.75;5222587;28;20217;-62
2021/05/28 07:08:37;;;;;;;8.07;7.32;;;13.10;99.90;;;14.61;71.02;98473.97;5224655;28;20208;-59
2021/05/28 07:11:10;;;;;;;7.28;6.68;;;13.20;99.90;;;14.60;72.13;98479.94;5223541;28;20203;-59
2021/05/28 07:13:43;;;;;;;6.47;5.97;;;13.30;99.90;;;14.71;72.60;98476.22;5224588;28;20304;-61
2021/05/28 07:16:17;;;;;;;7.10;6.50;;;13.50;99.90;;;14.90;72.43;98484.88;5224132;28;20274;-60
2021/05/28 07:18:49;;;;;;;7.22;6.63;;;13.60;99.90;;;15.03;70.48;98482.09;5228822;28;20197;-59
2021/05/28 07:21:24;;;;;;;7.00;6.50;;;13.70;99.90;;;15.01;68.45;98483.72;5229335;28;20200;-60
2021/05/28 07:23:56;;;;;;;7.03;6.53;;;13.70;99.90;;;14.97;67.64;98481.81;5232726;28;20207;-56
2021/05/28 07:26:29;;;;;;;6.30;5.40;;;13.60;99.90;;;15.08;69.65;98490.94;5225952;28;20202;-58
2021/05/28 07:29:01;;;;;;;6.07;5.50;;;13.70;99.90;;;15.35;69.93;98485.38;5225483;28;20220;-58
2021/05/28 07:31:35;;;;;;;6.75;6.20;;;14.00;99.90;;;15.55;68.23;98489.78;5225227;28;20262;-58
2021/05/28 07:34:07;;;;;;;5.85;5.45;;;14.10;99.90;;;15.74;66.68;98486.41;5229136;28;20594;-57
2021/05/28 07:36:40;;;;;;;5.55;5.05;;;14.30;99.90;;;15.87;66.43;98491.31;5229505;28;20231;-59
2021/05/28 07:39:13;;;;;;;6.15;5.60;;;14.40;99.90;;;16.04;65.38;98491.22;5229877;28;20201;-60
2021/05/28 07:41:46;;;;;;;5.35;4.95;;;14.60;99.90;;;16.28;64.61;98491.44;5228867;28;20197;-59
2021/05/28 07:44:19;;;;;;;5.68;5.00;;;14.60;99.90;;;16.36;63.68;98492.66;5228873;28;20588;-57
2021/05/28 07:46:52;;;;;;;5.57;5.18;;;14.70;99.90;;;16.26;64.17;98487.94;5228421;28;20198;-63
2021/05/28 07:49:25;;;;;;;5.57;5.07;;;14.70;99.90;;;16.26;65.27;98483.66;5219102;28;20661;-63
2021/05/28 07:51:58;;;;;;;6.00;5.50;;;14.80;99.90;;;16.00;65.06;98490.19;5222579;28;20209;-59
2021/05/28 07:54:30;;;;;;;5.38;4.95;;;14.60;99.90;;;16.17;65.70;98489.28;5220200;28;20322;-57
2021/05/28 07:57:05;;;;;;;5.05;4.75;;;14.70;99.90;;;16.34;64.68;98491.69;5227867;28;20221;-59
2021/05/28 07:59:37;;;;;;;5.63;5.22;;;14.80;99.90;;;16.52;64.10;98497.69;5227903;28;20582;-60
2021/05/28 08:02:10;;;;;;;5.55;5.05;;;15.00;99.90;;;16.57;62.52;98501.38;5228794;28;20201;-57
2021/05/28 08:04:43;;;;;;;4.88;4.55;;;15.00;99.90;;;16.64;63.18;98498.22;5227074;28;20219;-58
2021/05/28 08:07:16;;;;;;;5.72;5.32;;;15.10;99.90;;;16.77;62.11;98493.59;5228122;28;20205;-58
2021/05/28 08:09:49;;;;;;;5.65;5.20;;;15.20;99.90;;;16.80;62.81;98498.94;5226589;28;20208;-57
2021/05/28 08:12:22;;;;;;;4.55;4.25;;;15.20;99.90;;;16.78;61.81;98495.41;5227973;28;20208;-57
2021/05/28 08:14:54;;;;;;;5.20;4.80;;;15.30;99.90;;;16.87;61.18;98493.19;5227766;28;20304;-57
2021/05/28 08:17:28;;;;;;;5.10;4.70;;;15.30;99.90;;;16.82;62.42;98498.16;5225695;28;20210;-57
2021/05/28 08:20:00;;;;;;;5.10;4.70;;;15.30;99.90;;;16.98;61.05;98504.88;5229652;28;20193;-59
2021/05/28 08:22:33;;;;;;;5.53;5.10;;;15.50;99.90;;;17.26;60.06;98500.84;5227528;28;20197;-59
2021/05/28 08:25:07;;;;;;;5.57;5.10;;;15.70;99.90;;;17.37;60.73;98502.19;5238513;22;20225;-62
2021/05/28 08:27:40;;;;;;;5.30;4.93;;;15.80;99.90;;;17.56;60.39;98489.16;5228861;28;20215;-62
2021/05/28 08:30:14;;;;;;;5.45;4.97;;;16.00;99.90;;;17.60;59.61;98486.69;5228954;28;20656;-61
2021/05/28 08:32:47;;;;;;;4.93;4.63;;;16.10;99.90;;;17.84;58.06;98492.84;5226312;28;20207;-61
2021/05/28 08:35:20;;;;;;;5.13;4.70;;;16.30;99.90;;;17.70;58.19;98484.53;5219833;28;20222;-62
2021/05/28 08:37:53;;;;;;;5.35;4.60;;;16.20;99.90;;;17.82;58.81;98484.16;5211029;28;21303;-60
2021/05/28 08:40:29;;;;;;;5.15;4.75;;;16.30;99.90;;;17.99;57.16;98480.50;5211573;28;20209;-62
2021/05/28 08:43:05;;;;;;;4.15;3.85;;;16.50;99.90;;;18.17;56.69;98484.59;5214773;28;20209;-61
2021/05/28 08:45:40;;;;;;;4.70;4.30;;;16.60;99.90;;;18.28;55.85;98483.28;5222246;28;20243;-61
2021/05/28 08:48:16;;;;;;;4.18;3.80;;;16.60;99.90;;;18.31;53.72;98478.22;5210435;28;20617;-61
2021/05/28 08:50:50;;;;;;;4.28;3.92;;;16.60;99.90;;;18.11;55.00;98485.25;5209556;28;20259;-61
2021/05/28 08:53:24;;;;;;;4.00;3.70;;;16.70;99.90;;;17.73;57.04;98488.94;5214849;28;20576;-62
2021/05/28 08:55:57;;;;;;;3.80;3.50;;;16.50;99.90;;;17.71;55.90;98485.41;5224303;28;20264;-59
2021/05/28 08:58:30;;;;;;;4.00;3.70;;;16.30;99.90;;;17.61;57.37;98484.16;5217458;28;20208;-62
2021/05/28 09:01:03;;;;;;;3.80;3.50;;;16.10;99.90;;;17.53;57.43;98482.97;5217100;28;20661;-60
2021/05/28 09:03:38;;;;;;;3.78;3.47;;;16.20;99.90;;;17.62;56.76;98485.03;5213340;28;20204;-61
2021/05/28 09:06:18;;;;;;;3.00;2.80;;;16.20;99.90;;;17.71;55.99;98481.13;5213818;28;20673;-61
2021/05/28 09:08:51;;;;;;;3.80;3.40;;;16.40;99.90;;;17.29;56.79;98485.47;5208249;28;20198;-60
2021/05/28 09:11:24;;;;;;;3.35;3.15;;;16.20;99.90;;;17.45;56.12;98489.53;5204340;28;20198;-61
2021/05/28 09:13:57;;;;;;;3.58;3.28;;;16.20;99.90;;;17.45;56.32;98487.84;5219047;28;20204;-61
2021/05/28 09:16:30;;;;;;;3.05;2.83;;;16.20;99.90;;;17.44;55.41;98486.09;5206064;28;20276;-62
2021/05/28 09:19:03;;;;;;;3.95;3.63;;;16.00;99.90;;;17.36;55.32;98491.75;5208286;28;20197;-61
2021/05/28 09:21:36;;;;;;;3.40;3.20;;;16.00;99.90;;;17.09;55.63;98485.53;5212406;28;20590;-61
2021/05/28 09:24:28;;;;;;;3.80;3.50;;;15.90;99.90;;;17.08;56.73;98483.78;5214247;28;20198;-61
2021/05/28 09:27:22;;;;;;;3.70;3.40;;;15.80;99.90;;;17.31;55.69;98488.97;5204580;28;20696;-62
2021/05/28 09:30:17;;;;;;;3.97;3.20;;;16.00;99.90;;;17.52;55.75;98478.66;5209576;28;20348;-62
2021/05/28 09:32:50;;;;;;;3.33;3.13;;;16.10;99.90;;;17.63;54.90;98477.38;5207275;28;20202;-62
2021/05/28 09:35:23;;;;;;;4.00;3.70;;;16.10;99.90;;;17.70;54.58;98473.31;5207403;28;20221;-63
2021/05/28 09:37:56;;;;;;;3.78;3.47;;;16.20;99.90;;;17.62;54.78;98475.59;5218282;28;20202;-60
2021/05/28 09:40:29;;;;;;;4.18;3.72;;;16.30;99.90;;;17.58;54.60;98475.41;5208902;28;20206;-62
2021/05/28 09:43:05;;;;;;;3.58;3.28;;;16.20;99.90;;;17.75;54.05;98477.84;5215109;28;20781;-62
2021/05/28 09:45:39;;;;;;;3.63;3.42;;;16.40;99.90;;;17.98;53.21;98470.97;5204078;28;20329;-61
2021/05/28 09:48:33;;;;;;;3.22;2.92;;;16.60;99.90;;;18.32;53.40;98472.25;5213573;28;20715;-62
2021/05/28 09:51:08;;;;;;;3.15;2.95;;;17.10;99.90;;;18.35;51.73;98472.34;5214458;28;20243;-62
2021/05/28 09:53:42;;;;;;;3.03;2.83;;;17.30;99.90;;;18.53;51.54;98477.28;5205163;28;20197;-61
2021/05/28 09:56:27;;;;;;;3.33;3.03;;;17.40;99.90;;;18.50;50.41;98465.97;5215411;28;20216;-63
2021/05/28 09:59:04;;;;;;;3.45;3.20;;;17.30;99.90;;;18.61;50.36;98459.44;5218250;28;20197;-62
2021/05/28 10:01:39;;;;;;;3.45;3.17;;;17.40;99.90;;;18.75;49.22;98475.50;5215943;28;20247;-62
2021/05/28 10:04:12;;;;;;;3.60;3.30;;;17.50;99.90;;;18.56;48.51;98474.81;5219133;28;20207;-62
2021/05/28 10:06:46;;;;;;;3.70;3.40;;;17.30;99.70;;;18.52;48.58;98464.31;5203934;28;20228;-62
2021/05/28 10:09:18;;;;;;;3.55;3.25;;;17.20;99.90;;;18.44;49.00;98471.78;5212173;28;20656;-61
2021/05/28 10:11:52;;;;;;;3.30;3.08;;;17.00;99.90;;;18.37;48.60;98469.78;5211692;28;20201;-61
2021/05/28 10:14:25;;;;;;;3.20;3.00;;;17.10;99.90;;;18.29;48.40;98466.06;5215143;28;20194;-61
2021/05/28 10:16:58;;;;;;;3.72;3.42;;;17.00;99.50;;;18.34;49.50;98470.59;5207962;28;20229;-62
2021/05/28 10:19:33;;;;;;;3.45;3.25;;;17.10;99.90;;;18.44;50.63;98461.44;5203726;28;20695;-61
2021/05/28 10:22:07;;;;;;;3.17;2.95;;;17.20;99.90;;;18.63;48.92;98469.03;5215121;28;20742;-62
2021/05/28 10:24:40;;;;;;;3.35;3.05;;;17.40;99.70;;;18.71;49.33;98471.88;5217417;28;20201;-62
2021/05/28 10:27:21;;;;;;;4.20;3.78;;;17.50;99.90;;;18.94;48.25;98464.06;5214645;28;20197;-62
2021/05/28 10:29:55;;;;;;;4.07;3.60;;;17.60;99.20;;;18.78;50.17;98463.53;5203493;28;20208;-62
2021/05/28 10:32:27;;;;;;;4.53;4.15;;;17.60;99.90;;;18.90;48.71;98466.53;5209041;28;20587;-61
2021/05/28 10:35:17;;;;;;;3.95;3.65;;;17.60;99.60;;;18.95;48.04;98471.00;5212899;28;20767;-62
2021/05/28 10:37:51;;;;;;;3.88;3.58;;;17.50;99.30;;;18.77;49.24;98471.25;5207052;28;20780;-62
2021/05/28 10:40:27;;;;;;;3.88;3.58;;;17.50;99.90;;;18.52;49.90;98472.94;5212059;28;20207;-62
2021/05/28 10:43:04;;;;;;;3.45;3.17;;;17.40;99.90;;;18.63;50.25;98471.63;5203296;28;20681;-61
2021/05/28 10:46:01;;;;;;;3.83;3.50;;;17.40;99.90;;;18.44;48.48;98477.84;5210418;28;20232;-62